Latest Weather Observations for Parafield

IDS60801

Issued at 9:51 pm CDT Thursday 17 January 2019 (issued every 10 minutes, with the page automatically refreshed every 10 minutes)

About weather observations | Map of weather stations | Latest weather observations for SA | Other Formats
Station Details ID: 023013 Name: PARAFIELD AIRPORT Lat: -34.80 Lon: 138.63 Height: 9.5 m
Data from the previous 72 hours. | See also: Recent months at Parafield
Date/Time
CDT
Temp
°C
App
Temp
°C
Dew
Point
°C
Rel
Hum
%
Delta-T
°C
Wind Press
QNH
hPa
Press
MSL
hPa
Rain since
9am
mm
Dir  Spd
km/h
Gust
km/h
Spd
kts
Gust
kts
17/09:30pm 31.2 28.8 10.0 27 12.1 SSE 13 17 7 9 1006.8 1006.8 0.0
17/09:00pm 31.4 28.8 10.7 28 11.9 SSE 15 22 8 12 1007.2 1007.2 0.0
17/08:30pm 31.0 29.1 11.9 31 11.2 SE 13 20 7 11 1006.7 1006.7 0.0
17/08:00pm 30.8 28.3 12.2 32 10.9 SSE 17 24 9 13 1007.1 1007.1 0.0
17/07:30pm 31.2 27.8 12.5 31 11.1 SSW 22 33 12 18 1007.1 1007.1 0.0
17/07:00pm 31.2 26.1 13.0 33 10.8 SSW 32 41 17 22 1007.2 1007.2 0.0
17/06:30pm 31.8 26.4 12.1 30 11.6 SSW 32 43 17 23 1007.0 1007.0 0.0
17/06:00pm 32.3 26.7 11.5 28 12.2 SSW 32 41 17 22 1006.5 1006.5 0.0
17/05:30pm 31.8 27.1 12.1 30 11.6 SSW 28 37 15 20 1006.4 1006.4 0.0
17/05:15pm 31.0 26.3 13.3 34 10.6 SSW 30 44 16 24 1006.2 1006.2 0.0
17/05:00pm 29.7 24.2 14.7 40 9.1 SSW 37 50 20 27 1006.1 1006.1 0.0
17/04:30pm 31.1 25.1 14.3 36 10.2 SW 39 50 21 27 1006.0 1006.0 0.0
17/04:10pm 31.1 25.3 13.8 34 10.4 SW 37 59 20 32 1005.9 1005.9 0.0
17/04:00pm 33.3 27.9 13.9 31 11.8 SW 35 50 19 27 1005.7 1005.7 0.0
17/03:48pm 36.7 30.7 10.1 20 15.5 SSW 32 54 17 29 1005.3 1005.3 0.0
17/03:30pm 39.5 34.5 8.1 15 18.1 SW 24 32 13 17 1005.4 1005.4 0.0
17/03:00pm 40.2 36.3 8.6 15 18.4 WSW 19 24 10 13 1005.7 1005.7 0.0
17/02:30pm 38.6 36.3 7.4 15 17.7 S 9 19 5 10 1006.2 1006.2 0.0
17/02:00pm 39.2 35.8 7.8 15 17.9 SSW 15 20 8 11 1006.2 1006.2 0.0
17/01:30pm 39.2 36.6 7.8 15 17.9 SW 11 17 6 9 1006.4 1006.4 0.0
17/01:00pm 38.0 36.6 8.7 17 16.8 ESE 6 13 3 7 1006.7 1006.7 0.0
17/12:30pm 37.4 36.1 9.9 19 16.1 SE 7 13 4 7 1007.1 1007.1 0.0
17/12:00pm 36.8 35.2 10.2 20 15.6 SSW 9 15 5 8 1007.4 1007.4 0.0
17/11:30am 36.9 34.7 9.5 19 15.9 S 11 17 6 9 1007.7 1007.7 0.0
17/11:00am 36.0 33.6 10.2 21 15.0 SSW 13 20 7 11 1007.7 1007.7 0.0
17/10:30am 35.9 32.8 10.2 21 15.0 SSW 17 20 9 11 1007.5 1007.5 0.0
17/10:00am 35.5 35.1 12.5 25 13.8 SE 6 11 3 6 1007.8 1007.8 0.0
17/09:30am 31.2 31.2 15.2 38 9.9 W 9 11 5 6 1008.5 1008.5 0.0
17/09:00am 31.3 30.8 14.9 37 10.1 W 11 15 6 8 1008.6 1008.6 0.0
17/08:30am 28.7 29.4 15.6 45 8.1 W 6 9 3 5 1008.1 1008.1 0.0
17/08:00am 27.6 27.5 14.9 45 7.7 SW 9 13 5 7 1007.9 1007.9 0.0
17/07:30am 26.8 27.1 14.5 46 7.4 NNE 6 7 3 4 1007.3 1007.3 0.0
17/07:00am 26.9 26.5 14.0 45 7.7 NNW 9 11 5 6 1007.8 1007.8 0.0
17/06:30am 27.5 25.6 13.1 41 8.5 N 15 20 8 11 1007.4 1007.4 0.0
17/06:00am 27.6 27.1 12.0 38 9.0 SSE 6 11 3 6 1007.4 1007.4 0.0
17/05:30am 27.5 26.1 12.3 39 8.8 S 11 15 6 8 1006.8 1006.8 0.0
17/05:00am 25.4 26.7 15.1 53 6.2 ENE 2 6 1 3 1006.6 1006.6 0.0
17/04:30am 25.4 25.5 15.4 54 6.1 NE 9 11 5 6 1007.4 1007.4 0.0
17/04:00am 25.0 24.6 14.2 51 6.4 S 9 11 5 6 1007.8 1007.8 0.0
17/03:30am 25.4 25.0 15.1 53 6.2 SSW 11 13 6 7 1008.1 1008.1 0.0
17/03:00am 24.9 25.6 17.1 62 4.8 SW 9 9 5 5 1008.5 1008.5 0.0
17/02:30am 25.3 25.1 16.7 59 5.3 S 13 17 7 9 1009.1 1009.1 0.0
17/02:00am 25.2 24.4 18.4 66 4.3 SW 20 37 11 20 1009.3 1009.3 0.0
17/01:39am 25.7 26.1 19.1 67 4.2 W 15 39 8 21 1008.6 1008.6 0.0
17/01:30am 25.5 26.1 16.9 59 5.3 WSW 9 9 5 5 1007.6 1007.6 0.0
17/01:00am 26.7 28.4 17.2 56 5.9 N 4 7 2 4 1007.5 1007.5 0.0
17/12:30am 27.0 27.0 18.0 58 5.7 NE 15 17 8 9 1007.4 1007.4 0.0
17/12:00am 26.2 27.2 18.6 63 4.9 N 11 19 6 10 1008.1 1008.1 0.0
 
Date/Time
CDT
Temp
°C
App
Temp
°C
Dew
Point
°C
Rel
Hum
%
Delta-T
°C
Wind Press
QNH
hPa
Press
MSL
hPa
Rain since
9am
mm
Dir  Spd
km/h
Gust
km/h
Spd
kts
Gust
kts
16/11:30pm 26.4 27.6 19.0 63 4.8 NW 11 19 6 10 1007.8 1007.8 0.0
16/11:00pm 26.5 27.9 18.6 62 5.0 WSW 9 15 5 8 1007.7 1007.7 0.0
16/10:30pm 27.6 27.7 18.3 57 5.9 NNW 15 20 8 11 1007.6 1007.6 0.0
16/10:00pm 31.1 28.4 12.9 32 10.8 NW 19 30 10 16 1007.5 1007.5 0.0
16/09:30pm 31.9 30.8 10.6 27 12.3 WNW 7 11 4 6 1005.9 1005.9 0.0
16/09:00pm 33.5 31.7 9.5 23 13.7 SSW 9 15 5 8 1005.6 1005.6 0.0
16/08:30pm 35.6 32.6 9.2 20 15.2 SW 15 28 8 15 1005.4 1005.4 0.0
16/08:10pm 37.1 31.1 7.1 16 16.8 W 28 63 15 34 1006.0 1006.0 0.0
16/08:00pm 37.8 32.3 5.7 14 17.6 WNW 24 37 13 20 1005.6 1005.6 0.0
16/07:35pm 36.9 31.1 9.5 19 15.9 NW 30 48 16 26 1005.9 1005.9 0.0
16/07:30pm 37.6 30.7 6.6 15 17.3 NW 32 48 17 26 1005.8 1005.8 0.0
16/07:06pm 39.0 32.7 5.6 13 18.4 NNW 28 50 15 27 1005.2 1005.2 0.0
16/07:00pm 38.6 32.1 6.3 14 18.0 NNW 30 43 16 23 1005.2 1005.2 0.0
16/06:30pm 38.2 31.6 6.0 14 17.8 NNW 30 41 16 22 1005.1 1005.1 0.0
16/06:00pm 35.2 31.2 10.3 22 14.5 NW 22 35 12 19 1006.0 1006.0 0.0
16/05:40pm 36.1 30.1 7.2 17 16.1 WNW 28 48 15 26 1005.9 1005.9 0.0
16/05:30pm 37.4 33.3 6.4 15 17.2 WNW 17 26 9 14 1005.3 1005.3 0.0
16/05:00pm 39.4 35.9 3.5 11 19.2 NNW 11 17 6 9 1004.4 1004.4 0.0
16/04:30pm 39.5 35.6 3.6 11 19.3 N 13 15 7 8 1004.8 1004.8 0.0
16/04:00pm 38.5 32.4 2.8 11 18.8 N 24 32 13 17 1004.7 1004.7 0.0
16/03:30pm 39.9 36.5 3.9 11 19.5 N 11 15 6 8 1005.2 1005.2 0.0
16/03:00pm 39.4 34.9 2.2 10 19.6 NE 15 22 8 12 1005.5 1005.5 0.0
16/02:30pm 39.1 32.6 0.5 9 19.8 NNE 24 32 13 17 1005.9 1005.9 0.0
16/02:00pm 39.2 32.7 0.6 9 19.7 N 24 30 13 16 1006.9 1006.9 0.0
16/01:30pm 40.8 36.5 -1.7 7 21.2 NNE 11 17 6 9 1006.8 1006.8 0.0
16/01:00pm 39.6 36.2 -0.8 8 20.3 NE 7 11 4 6 1007.2 1007.2 0.0
16/12:30pm 38.7 36.4 0.2 9 19.6 NNW 2 9 1 5 1007.7 1007.7 0.0
16/12:00pm 38.6 35.3 0.1 9 19.5 NNW 7 13 4 7 1008.2 1008.2 0.0
16/11:30am 37.8 33.1 1.0 10 18.8 NE 15 17 8 9 1008.3 1008.3 0.0
16/11:00am 36.3 33.6 3.5 13 17.3 N 7 11 4 6 1008.5 1008.5 0.0
16/10:30am 34.7 31.2 3.3 14 16.4 ESE 11 15 6 8 1008.8 1008.8 0.0
16/10:00am 32.1 29.6 4.0 17 14.6 SE 6 9 3 5 1009.0 1009.0 0.0
16/09:30am 28.9 26.5 8.6 28 11.2 E 11 15 6 8 1009.0 1009.0 0.0
16/09:00am 27.2 25.7 12.0 38 8.8 SE 11 13 6 7 1009.6 1009.6 0.0
16/08:30am 26.5 25.3 12.9 43 7.9 SSW 11 13 6 7 1009.9 1009.9 0.0
16/08:00am 25.7 25.7 15.1 52 6.4 SSW 9 13 5 7 1009.6 1009.6 0.0
16/07:30am 24.2 23.6 15.7 59 5.1 SSE 13 15 7 8 1009.4 1009.4 0.0
16/07:00am 23.3 23.7 15.4 61 4.7 S 7 13 4 7 1009.4 1009.4 0.0
16/06:30am 19.7 18.8 12.5 63 4.0 SSE 9 9 5 5 1008.9 1008.9 0.0
16/06:00am 20.7 20.7 12.4 59 4.7 SW 4 7 2 4 1008.1 1008.1 0.0
16/05:30am 21.6 20.7 12.5 56 5.2 NW 9 17 5 9 1007.0 1007.0 0.0
16/05:00am 20.2 20.0 13.6 66 3.8 NW 7 9 4 5 1006.7 1006.7 0.0
16/04:30am 20.9 22.0 13.4 62 4.3 CALM 0 0 0 0 1006.9 1006.9 0.0
16/04:00am 21.4 22.6 13.8 62 4.4 CALM 0 2 0 1 1007.0 1007.0 0.0
16/03:30am 22.3 22.0 12.8 55 5.4 NE 6 7 3 4 1007.5 1007.5 0.0
16/03:00am 23.3 21.7 11.7 48 6.5 NW 11 15 6 8 1007.6 1007.6 0.0
16/02:30am 24.8 22.3 4.5 27 10.2 NE 7 9 4 5 1007.6 1007.6 0.0
16/02:00am 26.1 23.2 1.4 20 11.8 SE 6 9 3 5 1008.0 1008.0 0.0
16/01:30am 25.7 22.8 2.4 22 11.3 WSW 7 11 4 6 1008.1 1008.1 0.0
16/01:00am 27.3 24.3 1.7 19 12.4 ENE 7 11 4 6 1007.8 1007.8 0.0
16/12:30am 28.8 24.9 1.3 17 13.3 ESE 11 20 6 11 1008.0 1008.0 0.0
16/12:00am 27.5 23.9 5.1 24 11.5 SE 13 19 7 10 1008.3 1008.3 0.0
 
Date/Time
CDT
Temp
°C
App
Temp
°C
Dew
Point
°C
Rel
Hum
%
Delta-T
°C
Wind Press
QNH
hPa
Press
MSL
hPa
Rain since
9am
mm
Dir  Spd
km/h
Gust
km/h
Spd
kts
Gust
kts
15/11:30pm 25.1 24.8 11.3 42 7.8 NE 4 7 2 4 1008.8 1008.8 0.0
15/11:00pm 27.5 27.0 11.9 38 9.0 SSW 6 11 3 6 1008.9 1008.9 0.0
15/10:30pm 29.2 26.0 9.9 30 10.9 WNW 17 32 9 17 1008.3 1008.3 0.0
15/10:00pm 30.2 26.0 4.0 19 13.4 NNE 15 17 8 9 1007.7 1007.7 0.0
15/09:30pm 29.3 27.2 4.0 20 12.9 E 4 6 2 3 1008.0 1008.0 0.0
15/09:00pm 29.9 27.5 4.5 20 13.1 SSW 6 7 3 4 1008.3 1008.3 0.0
15/08:30pm 30.9 25.3 5.3 20 13.5 SSW 24 35 13 19 1008.2 1008.2 0.0
15/08:00pm 33.5 31.3 10.8 25 13.2 W 13 15 7 8 1007.4 1007.4 0.0
15/07:50pm 34.5 31.2 9.7 22 14.2 W 17 20 9 11 1007.4 1007.4 0.0
15/07:30pm 39.5 35.9 0.8 9 19.9 W 9 17 5 9 1007.1 1007.1 0.0
15/07:00pm 41.0 37.0 -6.0 5 22.0 SW 7 11 4 6 1007.0 1007.0 0.0
15/06:30pm 41.6 36.5 -5.6 5 22.4 SW 13 19 7 10 1006.8 1006.8 0.0
15/06:00pm 41.3 35.8 -5.8 5 22.2 SW 15 20 8 11 1007.0 1007.0 0.0
15/05:30pm 41.0 35.3 0.3 8 21.0 WSW 20 26 11 14 1007.0 1007.0 0.0
15/05:00pm 40.9 35.1 0.2 8 20.9 SW 20 30 11 16 1007.2 1007.2 0.0
15/04:30pm 41.9 36.3 0.9 8 21.4 SW 20 32 11 17 1007.3 1007.3 0.0
15/04:00pm 41.9 36.8 0.9 8 21.4 SSW 17 26 9 14 1007.5 1007.5 0.0
15/03:30pm 40.9 36.0 1.8 9 20.6 SSW 17 24 9 13 1007.6 1007.6 0.0
15/03:00pm 40.7 34.5 0.0 8 20.8 SSW 22 28 12 15 1008.0 1008.0 0.0
15/02:30pm 40.1 33.5 -0.4 8 20.5 SW 24 35 13 19 1008.5 1008.5 0.0
15/02:00pm 38.8 31.8 -3.2 7 20.2 SSW 24 32 13 17 1008.9 1008.9 0.0
15/01:30pm 38.0 31.0 -0.3 9 19.2 SSW 26 32 14 17 1009.3 1009.3 0.0
15/01:00pm 34.4 25.5 -1.6 10 17.3 SSW 35 46 19 25 1009.7 1009.7 0.0
15/12:41pm 34.1 25.9 2.8 14 16.1 SSW 35 54 19 29 1009.9 1009.9 0.0
15/12:30pm 33.6 24.4 3.4 15 15.6 SSW 41 50 22 27 1009.7 1009.7 0.0
15/12:15pm 34.8 28.4 9.3 21 14.6 SW 33 44 18 24 1008.8 1008.8 0.0
15/12:00pm 40.1 35.1 1.2 9 20.2 WSW 17 24 9 13 1008.2 1008.2 0.0
15/11:30am 39.0 35.7 0.4 9 19.7 NW 7 13 4 7 1008.1 1008.1 0.0
15/11:00am 37.3 34.3 0.6 10 18.6 WNW 6 9 3 5 1008.3 1008.3 0.0
15/10:30am 36.3 33.0 -0.2 10 18.1 NNW 7 11 4 6 1008.2 1008.2 0.0
15/10:00am 35.8 31.7 -0.5 10 17.9 N 11 15 6 8 1008.0 1008.0 0.0
15/09:30am 34.8 31.1 0.0 11 17.2 NNE 9 11 5 6 1008.3 1008.3 0.0
15/09:00am 32.1 30.3 1.3 14 15.3 CALM 0 7 0 4 1008.7 1008.7 0.0
15/08:30am 30.0 28.2 1.5 16 14.0 CALM 0 0 0 0 1008.9 1008.9 0.0
15/08:00am 27.9 25.2 3.6 21 12.2 SSW 7 9 4 5 1009.0 1009.0 0.0
15/07:30am 24.0 21.1 4.9 29 9.6 SW 9 11 5 6 1008.9 1008.9 0.0
15/07:00am 21.6 20.0 2.3 28 9.0 CALM 0 4 0 2 1009.0 1009.0 0.0
15/06:30am 20.3 17.3 1.7 29 8.5 SSE 7 9 4 5 1008.9 1008.9 0.0
15/06:00am 19.4 15.8 5.1 39 7.0 SSW 13 15 7 8 1008.5 1008.5 0.0
15/05:30am 20.1 19.1 5.4 38 7.2 CALM 0 0 0 0 1008.1 1008.1 0.0
15/05:00am 22.2 19.7 4.7 32 8.6 N 7 11 4 6 1007.8 1007.8 0.0
15/04:30am 20.4 17.9 4.8 36 7.6 NE 7 11 4 6 1007.4 1007.4 0.0
15/04:00am 20.9 18.4 4.5 34 8.0 ENE 7 9 4 5 1007.6 1007.6 0.0
15/03:30am 21.0 20.3 6.9 40 7.2 CALM 0 0 0 0 1008.0 1008.0 0.0
15/03:00am 20.4 19.2 4.4 35 7.8 CALM 0 0 0 0 1008.3 1008.3 0.0
15/02:30am 22.8 21.8 5.7 33 8.6 CALM 0 2 0 1 1008.4 1008.4 0.0
15/02:00am 21.8 19.1 3.9 31 8.7 WSW 7 11 4 6 1008.6 1008.6 0.0
15/01:30am 22.9 20.1 3.4 28 9.4 WSW 7 9 4 5 1008.5 1008.5 0.0
15/01:00am 24.5 20.8 2.6 24 10.5 WNW 11 13 6 7 1008.5 1008.5 0.0
15/12:30am 26.5 24.3 1.0 19 12.1 N 2 6 1 3 1008.5 1008.5 0.0
15/12:00am 29.3 25.6 -3.0 12 14.6 ESE 7 9 4 5 1008.6 1008.6 0.0
 
Date/Time
CDT
Temp
°C
App
Temp
°C
Dew
Point
°C
Rel
Hum
%
Delta-T
°C
Wind Press
QNH
hPa
Press
MSL
hPa
Rain since
9am
mm
Dir  Spd
km/h
Gust
km/h
Spd
kts
Gust
kts
14/11:30pm 28.7 26.4 -2.4 13 14.1 CALM 0 0 0 0 1008.8 1008.8 0.0
14/11:00pm 29.8 27.6 -1.5 13 14.5 CALM 0 6 0 3 1008.9 1008.9 0.0
14/10:30pm 30.0 27.6 -0.4 14 14.4 ENE 2 9 1 5 1009.2 1009.2 0.0
14/10:00pm 31.2 27.2 0.6 14 14.9 SE 11 19 6 10 1009.3 1009.3 0.0

Other Formats:

Comma delimited format used in spreadsheet applications
http://www.bom.gov.au/fwo/IDS60801/IDS60801.95677.axf

JavaScript Object Notation format (JSON) in row-major order
http://www.bom.gov.au/fwo/IDS60801/IDS60801.95677.json